Time;durP1;ratioP1;P1;durP2;ratioP2;P2;SDS_P1;SDS_P2;PMS_P1;PMS_P2;Temp;Humidity;BMP_temperature;BMP_pressure;BME280_temperature;BME280_humidity;BME280_pressure;Samples;Min_cycle;Max_cycle;Signal;HPM_P1;HPM_P2
2022/06/29 00:00:35;;;;;;;4.18;2.17;;;20.70;99.90;;;;;;5007927;28;20054;-79
2022/06/29 00:03:02;;;;;;;4.45;1.95;;;20.70;99.90;;;;;;5008932;28;20054;-78
2022/06/29 00:05:29;;;;;;;2.03;1.90;;;20.70;99.90;;;;;;5008353;28;20134;-79
2022/06/29 00:07:56;;;;;;;3.95;2.13;;;20.70;99.90;;;;;;5008113;28;20092;-80
2022/06/29 00:10:24;;;;;;;6.00;2.47;;;20.80;99.90;;;;;;5023514;28;20089;-78
2022/06/29 00:12:51;;;;;;;4.22;1.95;;;20.70;99.90;;;;;;5006696;28;20052;-79
2022/06/29 00:15:19;;;;;;;6.43;1.92;;;20.70;99.90;;;;;;5010337;28;20451;-81
2022/06/29 00:17:46;;;;;;;6.47;2.22;;;20.70;99.90;;;;;;5006980;28;20054;-80
2022/06/29 00:20:13;;;;;;;2.47;1.80;;;20.70;99.90;;;;;;5009017;28;20073;-79
2022/06/29 00:22:41;;;;;;;3.28;1.98;;;20.80;99.90;;;;;;5006961;28;20049;-78
2022/06/29 00:25:10;;;;;;;4.35;2.00;;;20.80;99.90;;;;;;5008129;28;20121;-80
2022/06/29 00:27:37;;;;;;;3.05;2.00;;;20.80;99.90;;;;;;5014467;28;20038;-80
2022/06/29 00:30:05;;;;;;;4.82;2.15;;;20.80;99.90;;;;;;5014173;28;20508;-77
2022/06/29 00:32:32;;;;;;;3.22;2.13;;;20.70;99.90;;;;;;5010154;28;20133;-78
2022/06/29 00:34:59;;;;;;;4.35;2.17;;;20.70;99.90;;;;;;5009787;28;20077;-78
2022/06/29 00:37:27;;;;;;;2.63;2.13;;;20.70;99.90;;;;;;5006526;28;20051;-80
2022/06/29 00:39:54;;;;;;;2.85;2.20;;;20.70;99.90;;;;;;5009737;28;20576;-78
2022/06/29 00:42:23;;;;;;;3.58;1.88;;;20.70;99.90;;;;;;5006754;28;20504;-79
2022/06/29 00:44:49;;;;;;;2.22;2.00;;;20.70;99.90;;;;;;5015440;28;20049;-81
2022/06/29 00:47:17;;;;;;;3.45;2.28;;;20.70;99.90;;;;;;5007816;28;20057;-79
2022/06/29 00:49:43;;;;;;;4.72;2.15;;;20.70;99.90;;;;;;5003054;28;20111;-78
2022/06/29 00:52:15;;;;;;;2.45;1.90;;;20.70;99.90;;;;;;5018769;28;20064;-79
2022/06/29 00:54:53;;;;;;;2.45;2.17;;;20.70;99.90;;;;;;5001661;28;20085;-78
2022/06/29 00:57:26;;;;;;;2.35;2.00;;;20.70;99.90;;;;;;5000051;28;20486;-80
2022/06/29 00:59:59;;;;;;;3.35;2.50;;;20.70;99.90;;;;;;5002820;28;20396;-78
2022/06/29 01:02:34;;;;;;;4.07;2.08;;;20.60;99.90;;;;;;4992671;28;20085;-77
2022/06/29 01:05:03;;;;;;;3.92;2.15;;;20.70;99.90;;;;;;5001767;28;20062;-80
2022/06/29 01:07:31;;;;;;;2.60;2.15;;;20.70;99.90;;;;;;4992577;28;20058;-78
2022/06/29 01:10:00;;;;;;;2.45;2.20;;;20.70;99.90;;;;;;4992200;28;20092;-77
2022/06/29 01:12:27;;;;;;;4.40;2.45;;;20.70;99.90;;;;;;4992561;28;20050;-79
2022/06/29 01:14:54;;;;;;;5.25;2.25;;;20.70;99.90;;;;;;5004205;28;20053;-79
2022/06/29 01:17:22;;;;;;;3.63;2.15;;;20.70;99.90;;;;;;5004290;28;20427;-78
2022/06/29 01:19:49;;;;;;;1.75;1.60;;;20.70;99.90;;;;;;5000771;28;20062;-78
2022/06/29 01:22:18;;;;;;;6.38;2.25;;;20.70;99.90;;;;;;5004113;28;20046;-78
2022/06/29 01:24:46;;;;;;;4.93;2.05;;;20.70;99.90;;;;;;5005798;28;20050;-77
2022/06/29 01:27:14;;;;;;;2.42;1.80;;;20.70;99.90;;;;;;5005973;28;20056;-78
2022/06/29 01:29:42;;;;;;;3.63;1.70;;;20.70;99.90;;;;;;5023262;28;20046;-77
2022/06/29 01:32:09;;;;;;;3.28;1.90;;;20.70;99.90;;;;;;5005688;28;20054;-78
2022/06/29 01:34:36;;;;;;;4.35;1.92;;;20.70;99.90;;;;;;5007361;28;20049;-79
2022/06/29 01:37:04;;;;;;;2.90;2.05;;;20.70;99.90;;;;;;5005470;28;20051;-78
2022/06/29 01:39:32;;;;;;;2.42;2.00;;;20.70;99.90;;;;;;5007906;28;20423;-79
2022/06/29 01:41:58;;;;;;;2.42;2.22;;;20.70;99.90;;;;;;5007123;28;20124;-77
2022/06/29 01:44:25;;;;;;;2.38;2.17;;;20.70;99.90;;;;;;5005794;28;20046;-78
2022/06/29 01:46:52;;;;;;;3.95;2.03;;;20.70;99.90;;;;;;5006418;28;20125;-78
2022/06/29 01:49:19;;;;;;;2.20;2.00;;;20.70;99.90;;;;;;5006430;28;20098;-78
2022/06/29 01:51:46;;;;;;;2.88;2.20;;;20.60;99.90;;;;;;5008027;28;20053;-78
2022/06/29 01:54:12;;;;;;;5.32;2.30;;;20.70;99.90;;;;;;5005825;28;20101;-77
2022/06/29 01:56:39;;;;;;;6.45;2.28;;;20.60;99.90;;;;;;5009157;28;20419;-79
2022/06/29 01:59:06;;;;;;;4.72;2.33;;;20.60;99.90;;;;;;5004423;28;20101;-78
2022/06/29 02:01:33;;;;;;;3.28;2.17;;;20.60;99.90;;;;;;5007715;28;20133;-76
2022/06/29 02:04:00;;;;;;;7.50;2.63;;;20.60;99.90;;;;;;5006731;28;20041;-79
2022/06/29 02:06:27;;;;;;;5.22;2.35;;;20.60;99.90;;;;;;5005176;28;20046;-78
2022/06/29 02:08:54;;;;;;;4.60;2.45;;;20.60;99.90;;;;;;5011934;28;20052;-79
2022/06/29 02:11:23;;;;;;;4.72;2.63;;;20.60;99.90;;;;;;5005820;28;20062;-79
2022/06/29 02:13:51;;;;;;;3.00;2.50;;;20.60;99.90;;;;;;5004637;28;20077;-77
2022/06/29 02:16:18;;;;;;;3.70;2.65;;;20.60;99.90;;;;;;5006911;28;20054;-78
2022/06/29 02:18:44;;;;;;;4.95;2.58;;;20.60;99.90;;;;;;5003405;28;20053;-78
2022/06/29 02:21:11;;;;;;;4.43;2.30;;;20.60;99.90;;;;;;5006304;28;20514;-79
2022/06/29 02:23:38;;;;;;;2.88;1.98;;;20.60;99.90;;;;;;5010257;28;20073;-78
2022/06/29 02:26:05;;;;;;;2.83;2.50;;;20.60;99.90;;;;;;5009127;28;20050;-80
2022/06/29 02:28:31;;;;;;;2.90;2.17;;;20.60;99.90;;;;;;5013143;28;20096;-78
2022/06/29 02:36:29;;;;;;;4.10;1.90;;;20.60;99.90;;;;;;5006368;28;20090;-77
2022/06/29 02:38:55;;;;;;;4.25;2.35;;;20.60;99.90;;;;;;5011222;28;20051;-76
2022/06/29 02:41:22;;;;;;;4.10;2.35;;;20.60;99.90;;;;;;5011748;28;20054;-78
2022/06/29 02:43:49;;;;;;;4.47;2.70;;;20.60;99.90;;;;;;5007806;28;20061;-78
2022/06/29 02:46:15;;;;;;;5.47;2.65;;;20.60;99.90;;;;;;5009039;28;20420;-78
2022/06/29 02:48:42;;;;;;;5.43;2.40;;;20.60;99.90;;;;;;5003546;28;20468;-78
2022/06/29 02:51:09;;;;;;;6.05;2.70;;;20.60;99.90;;;;;;5003443;28;20051;-79
2022/06/29 02:53:36;;;;;;;2.53;2.08;;;20.60;99.90;;;;;;5005649;28;20484;-78
2022/06/29 02:56:03;;;;;;;2.72;2.50;;;20.60;99.90;;;;;;5006104;28;20074;-78
2022/06/29 02:58:30;;;;;;;5.82;2.65;;;20.60;99.90;;;;;;5004713;28;20042;-78
2022/06/29 03:00:57;;;;;;;5.05;2.60;;;20.50;99.90;;;;;;5009553;28;20050;-79
2022/06/29 03:03:23;;;;;;;5.93;2.80;;;20.50;99.90;;;;;;5005493;28;20060;-77
2022/06/29 03:05:50;;;;;;;2.92;2.30;;;20.50;99.90;;;;;;5002506;28;20046;-78
2022/06/29 03:08:17;;;;;;;5.82;2.40;;;20.50;99.90;;;;;;4993376;28;20081;-78
2022/06/29 03:10:44;;;;;;;3.22;2.45;;;20.50;99.90;;;;;;4999154;28;20081;-78
2022/06/29 03:13:10;;;;;;;3.42;2.40;;;20.50;99.90;;;;;;4998311;28;20069;-78
2022/06/29 03:15:37;;;;;;;4.25;2.60;;;20.50;99.90;;;;;;5005430;28;20439;-77
2022/06/29 03:18:05;;;;;;;4.88;3.10;;;20.50;99.90;;;;;;4996089;28;20054;-78
2022/06/29 03:20:31;;;;;;;4.53;2.50;;;20.50;99.90;;;;;;5003959;28;20064;-78
2022/06/29 03:22:58;;;;;;;3.70;2.53;;;20.50;99.90;;;;;;5004966;28;20050;-77
2022/06/29 03:25:25;;;;;;;4.68;2.83;;;20.50;99.90;;;;;;5002552;28;20053;-78
2022/06/29 03:27:51;;;;;;;4.47;2.78;;;20.50;99.90;;;;;;5003326;28;20053;-78
2022/06/29 03:30:18;;;;;;;6.78;3.08;;;20.50;99.90;;;;;;5005490;28;20118;-79
2022/06/29 03:32:45;;;;;;;5.40;3.05;;;20.50;99.90;;;;;;5003012;28;20104;-79
2022/06/29 03:35:12;;;;;;;5.00;2.63;;;20.50;99.90;;;;;;5009997;28;20482;-77
2022/06/29 03:37:39;;;;;;;3.05;2.75;;;20.50;99.90;;;;;;4994769;28;20528;-79
2022/06/29 03:40:06;;;;;;;4.80;2.90;;;20.50;99.90;;;;;;4994612;28;20169;-79
2022/06/29 03:42:32;;;;;;;5.78;2.65;;;20.50;99.90;;;;;;4994606;28;20419;-78
2022/06/29 03:44:59;;;;;;;6.25;2.55;;;20.50;99.90;;;;;;4997685;28;20072;-79
2022/06/29 03:47:26;;;;;;;4.53;2.67;;;20.50;99.90;;;;;;5004052;28;20050;-78
2022/06/29 03:49:53;;;;;;;3.33;3.03;;;20.50;99.90;;;;;;5002087;28;20045;-78
2022/06/29 03:52:20;;;;;;;5.00;2.50;;;20.40;99.90;;;;;;5005841;28;20461;-78
2022/06/29 03:54:46;;;;;;;7.15;2.72;;;20.40;99.90;;;;;;5018013;28;20148;-79
2022/06/29 03:57:13;;;;;;;4.63;2.83;;;20.40;99.90;;;;;;5006031;28;20101;-78
2022/06/29 03:59:40;;;;;;;5.50;2.80;;;20.30;99.90;;;;;;5001973;28;20129;-80
2022/06/29 04:02:06;;;;;;;5.85;3.40;;;20.30;99.90;;;;;;5006032;28;20125;-77
2022/06/29 04:04:33;;;;;;;4.30;3.15;;;20.30;99.90;;;;;;5005967;28;20050;-78
2022/06/29 04:07:00;;;;;;;4.80;3.10;;;20.30;99.90;;;;;;5003556;28;20046;-77
2022/06/29 04:09:27;;;;;;;3.88;2.95;;;20.30;99.90;;;;;;5005159;28;20132;-77
2022/06/29 04:11:54;;;;;;;4.72;3.22;;;20.30;99.90;;;;;;5005404;28;20057;-77
2022/06/29 04:14:26;;;;;;;3.70;2.50;;;20.30;99.90;;;;;;5004483;28;20054;-79
2022/06/29 04:16:54;;;;;;;3.97;3.05;;;20.40;99.90;;;;;;5005686;28;20050;-78
2022/06/29 04:19:21;;;;;;;2.85;2.65;;;20.40;99.90;;;;;;5002204;28;20061;-79
2022/06/29 04:21:48;;;;;;;2.97;2.30;;;20.50;99.90;;;;;;5002342;28;20050;-78
2022/06/29 04:24:16;;;;;;;3.05;2.70;;;20.50;99.90;;;;;;5005375;28;20571;-79
2022/06/29 04:26:44;;;;;;;5.72;2.88;;;20.50;99.90;;;;;;5002409;28;20039;-79
2022/06/29 04:29:11;;;;;;;9.18;2.72;;;20.50;99.90;;;;;;5006468;28;20054;-79
2022/06/29 04:31:38;;;;;;;5.97;2.85;;;20.50;99.90;;;;;;5004171;28;20046;-79
2022/06/29 04:34:06;;;;;;;3.33;2.38;;;20.50;99.90;;;;;;5006513;28;20052;-78
2022/06/29 04:36:32;;;;;;;5.63;2.65;;;20.60;99.90;;;;;;5005691;28;20084;-78
2022/06/29 04:38:59;;;;;;;3.92;2.85;;;20.60;99.90;;;;;;5003532;28;20058;-78
2022/06/29 04:41:26;;;;;;;3.78;2.75;;;20.70;99.90;;;;;;5005628;28;20056;-77
2022/06/29 04:43:52;;;;;;;6.60;3.22;;;20.70;99.90;;;;;;4996220;28;20137;-77
2022/06/29 04:46:19;;;;;;;4.43;3.50;;;20.70;99.90;;;;;;5003355;28;20094;-78
2022/06/29 04:48:50;;;;;;;3.78;3.38;;;20.70;99.90;;;;;;5015735;28;20097;-76
2022/06/29 04:51:17;;;;;;;6.05;2.92;;;20.80;99.90;;;;;;5005079;28;20057;-78
2022/06/29 04:53:45;;;;;;;5.35;2.50;;;20.80;99.90;;;;;;5001408;28;20565;-77
2022/06/29 04:56:13;;;;;;;4.72;3.05;;;20.90;99.90;;;;;;5003831;28;20060;-77
2022/06/29 04:58:40;;;;;;;4.93;2.47;;;20.90;99.90;;;;;;5004271;28;20100;-78
2022/06/29 05:01:07;;;;;;;6.82;2.53;;;20.90;99.90;;;;;;5023163;28;20045;-78
2022/06/29 05:03:34;;;;;;;3.03;2.58;;;20.90;99.90;;;;;;5004079;28;20133;-78
2022/06/29 05:06:02;;;;;;;4.70;2.60;;;20.90;99.90;;;;;;5014659;28;20526;-80
2022/06/29 05:08:29;;;;;;;3.78;2.67;;;20.80;99.90;;;;;;5008802;28;20129;-80
2022/06/29 05:10:56;;;;;;;3.80;2.78;;;20.80;99.90;;;;;;5011953;28;20052;-77
2022/06/29 05:13:22;;;;;;;3.30;2.70;;;20.80;99.90;;;;;;5010439;28;20049;-79
2022/06/29 05:15:49;;;;;;;5.18;2.97;;;20.90;99.90;;;;;;5009288;28;20058;-79
2022/06/29 05:18:16;;;;;;;2.90;2.60;;;20.90;99.90;;;;;;5010019;28;20077;-80
2022/06/29 05:20:54;;;;;;;4.45;2.75;;;20.90;99.90;;;;;;5010504;28;20046;-79
2022/06/29 05:23:20;;;;;;;4.82;3.17;;;21.00;99.90;;;;;;5012519;28;20088;-80
2022/06/29 05:25:47;;;;;;;5.35;2.83;;;21.10;99.90;;;;;;5011191;28;20074;-79
2022/06/29 05:28:14;;;;;;;4.68;2.85;;;21.10;99.90;;;;;;5011911;28;20046;-79
2022/06/29 05:30:40;;;;;;;3.70;2.50;;;21.10;99.90;;;;;;5011750;28;20130;-81
2022/06/29 05:33:07;;;;;;;2.88;2.50;;;21.20;99.90;;;;;;5013745;28;20065;-80
2022/06/29 05:35:34;;;;;;;7.00;2.92;;;21.30;99.90;;;;;;5011056;28;20057;-80
2022/06/29 05:38:02;;;;;;;7.38;3.28;;;21.30;99.90;;;;;;5012006;28;20109;-80
2022/06/29 05:40:30;;;;;;;4.15;2.40;;;21.40;99.90;;;;;;5010103;28;20049;-78
2022/06/29 05:42:57;;;;;;;5.57;2.50;;;21.40;99.90;;;;;;5007864;28;20045;-80
2022/06/29 05:45:25;;;;;;;3.85;2.63;;;21.40;99.90;;;;;;5007068;28;20074;-76
2022/06/29 05:47:53;;;;;;;4.38;3.00;;;21.40;99.90;;;;;;5012155;28;20056;-80
2022/06/29 05:50:21;;;;;;;4.28;3.30;;;21.50;99.90;;;;;;5004883;28;20077;-78
2022/06/29 05:52:48;;;;;;;9.70;2.70;;;21.50;99.90;;;;;;5010985;28;20138;-81
2022/06/29 05:55:15;;;;;;;5.53;2.65;;;21.60;99.90;;;;;;5012459;28;20088;-79
2022/06/29 05:57:42;;;;;;;2.55;2.35;;;21.60;99.90;;;;;;5012857;28;20061;-78
2022/06/29 06:00:10;;;;;;;4.22;2.28;;;21.70;99.90;;;;;;5009656;28;20050;-80
2022/06/29 06:02:37;;;;;;;2.53;2.20;;;21.80;99.90;;;;;;5009983;28;20081;-79
2022/06/29 06:05:04;;;;;;;3.88;2.17;;;21.90;99.90;;;;;;4998291;28;20049;-77
2022/06/29 06:07:31;;;;;;;2.95;2.10;;;21.90;99.90;;;;;;5000969;28;20054;-78
2022/06/29 06:09:58;;;;;;;3.80;2.10;;;22.00;99.90;;;;;;5001643;28;20086;-79
2022/06/29 06:12:25;;;;;;;4.78;2.65;;;22.00;99.90;;;;;;5009312;28;20980;-79
2022/06/29 06:14:51;;;;;;;4.13;2.08;;;22.00;99.90;;;;;;5006729;28;20056;-77
2022/06/29 06:17:18;;;;;;;4.25;2.47;;;22.00;99.90;;;;;;5004106;28;20050;-77
2022/06/29 06:19:45;;;;;;;2.72;2.05;;;22.00;99.90;;;;;;5007040;28;20081;-78
2022/06/29 06:22:12;;;;;;;3.47;2.58;;;21.90;99.90;;;;;;5029313;28;20056;-80
2022/06/29 06:24:39;;;;;;;4.90;2.30;;;21.90;99.90;;;;;;5012564;28;20734;-79
2022/06/29 06:27:06;;;;;;;4.43;2.40;;;21.90;99.90;;;;;;5019172;28;20051;-78
2022/06/29 06:29:32;;;;;;;3.85;2.25;;;21.80;99.90;;;;;;5015820;28;20046;-79
2022/06/29 06:32:01;;;;;;;2.97;2.30;;;21.80;99.90;;;;;;5014781;28;20050;-79
2022/06/29 06:34:27;;;;;;;4.72;2.13;;;21.90;99.90;;;;;;5011425;28;20050;-79
2022/06/29 06:36:54;;;;;;;3.58;2.40;;;21.80;99.90;;;;;;5025765;28;20128;-81
2022/06/29 06:39:21;;;;;;;2.40;2.20;;;21.80;99.90;;;;;;5017265;28;20086;-79
2022/06/29 06:41:48;;;;;;;3.67;2.22;;;21.80;99.90;;;;;;5019391;28;20050;-79
2022/06/29 06:44:14;;;;;;;6.55;2.75;;;21.80;99.90;;;;;;5009749;28;20632;-77
2022/06/29 06:46:41;;;;;;;3.95;2.60;;;21.80;99.90;;;;;;5005729;28;20050;-78
2022/06/29 06:49:08;;;;;;;4.30;2.78;;;21.80;99.90;;;;;;5002088;28;20046;-78
2022/06/29 06:51:35;;;;;;;3.72;2.33;;;21.90;99.90;;;;;;5004608;28;20422;-77
2022/06/29 06:54:02;;;;;;;4.63;2.45;;;21.80;99.90;;;;;;5001331;28;20579;-78
2022/06/29 06:56:28;;;;;;;3.22;2.60;;;21.90;99.90;;;;;;5004691;28;20088;-78
2022/06/29 06:58:55;;;;;;;3.40;2.35;;;21.80;99.90;;;;;;5001509;28;20129;-78
2022/06/29 07:01:22;;;;;;;2.50;2.30;;;21.90;99.90;;;;;;5004286;28;20081;-77
2022/06/29 07:03:49;;;;;;;3.63;2.75;;;21.90;99.90;;;;;;5004158;28;20057;-77
2022/06/29 07:06:16;;;;;;;4.70;2.63;;;21.90;99.90;;;;;;5017771;28;20500;-78
2022/06/29 07:08:43;;;;;;;2.95;2.50;;;22.00;99.90;;;;;;5002606;28;20089;-77
2022/06/29 07:11:09;;;;;;;3.88;2.42;;;22.00;99.90;;;;;;5005147;28;20064;-78
2022/06/29 07:13:36;;;;;;;2.65;2.35;;;22.00;99.90;;;;;;5006056;28;20057;-79
2022/06/29 07:16:04;;;;;;;4.50;2.40;;;22.00;99.90;;;;;;5003316;28;20133;-79
2022/06/29 07:18:33;;;;;;;3.33;2.28;;;22.00;99.90;;;;;;5004070;28;20467;-78
2022/06/29 07:21:01;;;;;;;3.10;1.95;;;22.10;99.90;;;;;;5005785;28;20128;-78
2022/06/29 07:23:27;;;;;;;2.65;2.38;;;22.00;99.90;;;;;;5006410;28;20132;-77
2022/06/29 07:25:55;;;;;;;7.38;2.10;;;22.10;99.90;;;;;;5002033;28;20501;-78
2022/06/29 07:28:22;;;;;;;2.63;2.10;;;22.10;99.90;;;;;;5004007;28;20129;-77
2022/06/29 07:30:49;;;;;;;2.17;1.98;;;22.10;99.90;;;;;;5007957;28;20045;-78
2022/06/29 07:33:16;;;;;;;9.02;2.75;;;22.10;99.90;;;;;;5008464;28;20137;-78
2022/06/29 07:35:42;;;;;;;8.05;3.22;;;22.10;99.90;;;;;;5018543;28;20060;-77
2022/06/29 07:38:10;;;;;;;4.43;2.00;;;22.20;99.90;;;;;;5002509;28;20419;-77
2022/06/29 07:40:37;;;;;;;4.15;2.35;;;22.20;99.90;;;;;;5004218;28;20050;-77
2022/06/29 07:43:04;;;;;;;3.42;2.60;;;22.20;99.90;;;;;;4992528;28;20050;-78
2022/06/29 07:45:31;;;;;;;4.82;2.38;;;22.30;99.90;;;;;;4992614;28;20058;-79
2022/06/29 07:48:02;;;;;;;7.65;2.67;;;22.30;99.90;;;;;;4991398;28;20042;-78
2022/06/29 07:50:29;;;;;;;3.83;2.20;;;22.30;99.90;;;;;;5007738;28;20101;-78
2022/06/29 07:52:55;;;;;;;4.82;2.03;;;22.30;99.90;;;;;;5003570;28;20054;-78
2022/06/29 07:55:24;;;;;;;4.28;1.90;;;22.40;99.90;;;;;;5002881;28;20508;-79
2022/06/29 07:57:51;;;;;;;5.63;2.63;;;22.40;99.90;;;;;;5001282;28;20072;-78
2022/06/29 08:00:18;;;;;;;9.02;2.72;;;22.40;99.90;;;;;;5018238;28;20137;-80
2022/06/29 08:02:45;;;;;;;3.00;2.42;;;22.40;99.90;;;;;;5020154;28;20057;-79
2022/06/29 08:05:11;;;;;;;5.38;2.20;;;22.40;99.90;;;;;;5011043;28;20054;-78
2022/06/29 08:07:38;;;;;;;2.95;2.47;;;22.40;99.90;;;;;;5010254;28;20129;-78
2022/06/29 08:10:07;;;;;;;6.78;2.13;;;22.50;99.90;;;;;;5001335;28;20042;-77
2022/06/29 08:12:35;;;;;;;2.00;1.77;;;22.50;99.90;;;;;;5008681;28;20046;-78
2022/06/29 08:15:03;;;;;;;9.50;2.88;;;22.50;99.90;;;;;;5002260;28;20046;-78
2022/06/29 08:17:31;;;;;;;6.40;2.40;;;22.50;99.90;;;;;;5000981;28;20480;-78
2022/06/29 08:20:01;;;;;;;3.53;2.72;;;22.60;99.90;;;;;;5006455;28;20042;-78
2022/06/29 08:22:28;;;;;;;3.53;2.00;;;22.60;99.90;;;;;;4992375;28;20050;-78
2022/06/29 08:24:55;;;;;;;5.50;2.45;;;22.60;99.90;;;;;;4992033;28;20057;-77
2022/06/29 08:27:22;;;;;;;2.25;2.00;;;22.60;99.90;;;;;;5005337;28;20124;-77
2022/06/29 08:30:10;;;;;;;4.30;2.45;;;22.70;99.90;;;;;;5001524;28;20496;-77
2022/06/29 08:32:39;;;;;;;4.00;2.40;;;22.70;99.90;;;;;;5006857;28;20082;-77
2022/06/29 08:35:06;;;;;;;5.65;2.40;;;22.70;99.90;;;;;;5005051;28;20492;-77
2022/06/29 08:37:37;;;;;;;7.78;2.38;;;22.80;99.90;;;;;;5004551;28;20120;-78
2022/06/29 08:40:09;;;;;;;4.43;2.30;;;22.80;99.90;;;;;;5005885;28;20061;-78
2022/06/29 08:42:37;;;;;;;3.45;2.03;;;22.90;99.90;;;;;;5010768;28;20056;-77
2022/06/29 08:45:06;;;;;;;1.80;1.58;;;22.90;99.90;;;;;;5003217;28;20129;-77
2022/06/29 08:47:32;;;;;;;3.90;2.33;;;22.90;99.90;;;;;;5013336;28;20049;-78
2022/06/29 08:50:03;;;;;;;3.78;2.15;;;22.90;99.90;;;;;;5004635;28;20052;-78
2022/06/29 08:52:34;;;;;;;3.10;2.08;;;23.00;99.90;;;;;;5005554;28;20074;-78
2022/06/29 08:55:01;;;;;;;;;;;23.00;99.90;;;;;;5007407;28;20053;-78
2022/06/29 08:57:28;;;;;;;3.03;1.95;;;23.10;99.90;;;;;;5004339;28;20349;-78
2022/06/29 08:59:56;;;;;;;4.07;2.20;;;23.10;99.90;;;;;;5021979;28;20111;-77
2022/06/29 09:02:27;;;;;;;4.43;1.98;;;23.20;99.90;;;;;;5008055;28;20060;-78
2022/06/29 09:04:54;;;;;;;2.25;1.90;;;23.20;99.90;;;;;;5005714;28;20172;-77
2022/06/29 09:07:21;;;;;;;4.45;2.42;;;23.30;99.90;;;;;;5005041;28;20096;-78
2022/06/29 09:10:03;;;;;;;4.60;2.00;;;23.40;99.90;;;;;;5004539;28;20046;-78
2022/06/29 09:12:31;;;;;;;5.72;2.10;;;23.50;99.90;;;;;;5004077;28;20042;-78
2022/06/29 09:14:59;;;;;;;3.45;2.00;;;23.60;99.90;;;;;;5005662;28;20089;-78
2022/06/29 09:17:26;;;;;;;2.25;1.67;;;23.60;99.90;;;;;;5004717;28;20153;-78
2022/06/29 09:19:53;;;;;;;4.55;1.90;;;23.70;99.90;;;;;;5008243;28;20508;-78
2022/06/29 09:22:52;;;;;;;3.03;1.90;;;23.70;99.90;;;;;;5006862;28;20042;-78
2022/06/29 09:25:27;;;;;;;2.58;1.70;;;23.80;99.90;;;;;;5006145;28;20514;-77
2022/06/29 09:27:55;;;;;;;5.07;2.08;;;23.90;99.90;;;;;;5003769;28;20468;-77
2022/06/29 09:30:38;;;;;;;3.13;1.97;;;23.90;99.90;;;;;;5009287;28;20125;-78
2022/06/29 09:33:07;;;;;;;4.57;1.90;;;24.00;99.90;;;;;;4994846;28;20284;-78
2022/06/29 09:35:36;;;;;;;4.13;2.25;;;24.10;99.90;;;;;;4999275;28;20551;-77
2022/06/29 09:38:23;;;;;;;1.70;1.42;;;24.20;99.90;;;;;;5004176;28;20054;-78
2022/06/29 09:41:07;;;;;;;4.38;1.70;;;24.30;99.90;;;;;;5003498;28;20047;-78
2022/06/29 09:43:37;;;;;;;4.22;1.70;;;24.40;99.90;;;;;;5000716;28;20046;-78
2022/06/29 09:46:05;;;;;;;4.57;2.42;;;24.60;99.90;;;;;;5002228;28;20075;-77
2022/06/29 09:48:34;;;;;;;3.72;1.60;;;24.70;99.90;;;;;;5009330;28;20038;-78
2022/06/29 09:51:30;;;;;;;2.40;1.70;;;24.80;99.90;;;;;;5004175;28;20138;-78
2022/06/29 09:53:54;;;;;;;2.35;1.58;;;24.80;99.90;;;;;;5006374;28;20050;-78
2022/06/29 09:56:22;;;;;;;2.20;1.67;;;25.10;99.90;;;;;;5008662;28;20081;-78
2022/06/29 09:58:52;;;;;;;2.08;1.67;;;25.30;99.90;;;;;;5003457;28;20133;-77
2022/06/29 10:04:11;;;;;;;3.33;1.50;;;25.70;99.90;;;;;;5006427;28;20042;-78
2022/06/29 10:06:39;;;;;;;1.27;1.17;;;25.90;99.90;;;;;;5005835;28;20046;-78
2022/06/29 10:09:06;;;;;;;3.78;1.38;;;26.00;99.90;;;;;;4995367;28;20055;-79
2022/06/29 10:15:42;;;;;;;3.10;1.60;;;26.30;99.90;;;;;;5001869;28;20140;-78
2022/06/29 10:18:36;;;;;;;3.80;1.55;;;26.20;99.90;;;;;;5005744;28;20088;-77
2022/06/29 10:21:12;;;;;;;4.03;1.55;;;26.20;99.90;;;;;;5007619;28;20054;-78
2022/06/29 10:23:53;;;;;;;2.53;1.60;;;26.20;99.90;;;;;;5002852;28;20043;-78
2022/06/29 10:26:32;;;;;;;3.05;1.60;;;26.10;99.90;;;;;;5005485;28;20116;-77
2022/06/29 10:29:08;;;;;;;6.88;1.58;;;26.00;99.90;;;;;;5002897;28;20042;-78
2022/06/29 10:31:49;;;;;;;5.40;1.80;;;25.90;99.90;;;;;;5002041;28;20116;-78
2022/06/29 10:34:40;;;;;;;4.30;1.63;;;25.90;99.90;;;;;;5003199;28;20053;-78
2022/06/29 10:37:11;;;;;;;2.92;1.50;;;25.90;99.90;;;;;;5004586;28;20133;-77
2022/06/29 10:39:50;;;;;;;2.42;1.60;;;25.80;99.90;;;;;;5007399;28;20575;-76
2022/06/29 10:45:21;;;;;;;2.47;1.65;;;25.60;99.90;;;;;;5009099;28;20050;-78
2022/06/29 10:48:12;;;;;;;1.77;1.67;;;25.50;99.90;;;;;;5009325;28;20419;-79
2022/06/29 10:50:41;;;;;;;4.90;1.60;;;25.50;99.90;;;;;;5000862;28;20188;-78
2022/06/29 10:53:16;;;;;;;3.65;1.85;;;25.40;99.90;;;;;;5008560;28;20153;-78
2022/06/29 10:55:52;;;;;;;2.55;1.20;;;25.40;99.90;;;;;;5008973;28;20061;-79
2022/06/29 10:58:20;;;;;;;5.43;1.50;;;25.40;99.90;;;;;;5007177;28;20423;-80
2022/06/29 11:00:53;;;;;;;2.55;1.60;;;25.40;99.90;;;;;;5006229;28;20109;-80
2022/06/29 11:03:25;;;;;;;3.13;1.50;;;25.40;99.90;;;;;;5005283;28;20072;-80
2022/06/29 11:17:00;;;;;;;3.65;1.48;;;26.10;99.90;;;;;;5007038;28;20050;-80
2022/06/29 11:19:35;;;;;;;2.50;1.40;;;26.30;99.90;;;;;;5019039;28;20324;-81
2022/06/29 11:22:18;;;;;;;2.40;1.30;;;26.40;99.90;;;;;;5014769;28;20535;-80
2022/06/29 11:24:58;;;;;;;2.40;1.50;;;26.60;99.90;;;;;;5013050;28;20046;-81
2022/06/29 11:27:35;;;;;;;3.58;1.40;;;26.80;99.90;;;;;;5015876;28;20046;-81
2022/06/29 11:30:07;;;;;;;2.15;1.80;;;27.00;99.90;;;;;;5012121;28;20534;-79
2022/06/29 11:32:40;;;;;;;4.20;1.48;;;27.10;99.90;;;;;;5010691;28;20474;-82
2022/06/29 11:35:09;;;;;;;2.28;1.63;;;27.10;99.90;;;;;;5017621;28;20102;-82
2022/06/29 11:37:51;;;;;;;2.97;2.67;;;27.10;99.90;;;;;;5021209;28;20054;-81
2022/06/29 11:40:41;;;;;;;3.10;1.50;;;27.10;99.90;;;;;;5014780;28;20061;-81
2022/06/29 11:43:14;;;;;;;3.33;1.60;;;27.00;99.90;;;;;;5014882;28;20046;-80
2022/06/29 11:45:43;;;;;;;4.65;1.60;;;27.00;99.90;;;;;;5010834;28;20062;-81
2022/06/29 11:48:23;;;;;;;6.07;1.70;;;27.00;99.90;;;;;;5014631;28;20045;-78
2022/06/29 11:50:56;;;;;;;6.28;1.90;;;27.00;99.90;;;;;;5008698;28;20046;-78
2022/06/29 11:53:38;;;;;;;4.25;1.60;;;26.90;99.90;;;;;;5012048;28;20357;-79
2022/06/29 11:56:10;;;;;;;4.68;1.45;;;26.90;99.90;;;;;;5010658;28;20056;-79
2022/06/29 11:58:39;;;;;;;1.70;1.40;;;27.00;99.90;;;;;;5012890;28;20538;-78
2022/06/29 12:01:15;;;;;;;3.88;1.90;;;27.00;99.90;;;;;;5010872;28;20105;-81
2022/06/29 12:04:09;;;;;;;5.00;1.40;;;27.20;99.90;;;;;;5011195;28;20054;-81
2022/06/29 12:06:37;;;;;;;1.63;1.50;;;27.30;99.90;;;;;;5011487;28;20054;-80
2022/06/29 12:09:05;;;;;;;3.13;1.60;;;27.40;99.90;;;;;;5018804;28;20424;-82
2022/06/29 12:11:32;;;;;;;4.85;1.45;;;27.50;99.90;;;;;;5010809;28;20069;-81
2022/06/29 12:13:58;;;;;;;6.18;1.60;;;27.70;99.90;;;;;;5014312;28;20046;-80
2022/06/29 12:16:25;;;;;;;6.40;1.60;;;27.80;99.90;;;;;;5030183;28;20534;-81
2022/06/29 12:18:52;;;;;;;3.75;1.85;;;28.00;99.90;;;;;;5010857;28;20058;-80
2022/06/29 12:21:19;;;;;;;1.85;1.63;;;28.00;99.90;;;;;;5014150;28;20054;-82
2022/06/29 12:23:46;;;;;;;3.58;1.50;;;28.00;99.90;;;;;;5027336;28;20050;-81
2022/06/29 12:26:13;;;;;;;2.58;1.80;;;28.00;99.90;;;;;;5012205;28;20042;-81
2022/06/29 12:28:39;;;;;;;3.75;1.30;;;28.20;99.90;;;;;;5012126;28;20047;-80
2022/06/29 12:31:07;;;;;;;4.28;1.50;;;28.30;99.90;;;;;;5012646;28;20050;-80
2022/06/29 12:33:33;;;;;;;1.85;1.30;;;28.40;99.90;;;;;;5021073;28;20550;-81
2022/06/29 12:36:00;;;;;;;4.88;1.30;;;28.50;99.90;;;;;;5011974;28;20137;-81
2022/06/29 12:38:27;;;;;;;3.65;1.50;;;28.50;99.90;;;;;;5013881;28;20450;-80
2022/06/29 12:40:54;;;;;;;2.42;1.48;;;28.50;99.90;;;;;;5014519;28;20113;-81
2022/06/29 12:43:21;;;;;;;2.05;1.40;;;28.30;99.90;;;;;;5011524;28;20050;-80
2022/06/29 12:45:48;;;;;;;3.28;1.52;;;28.20;99.90;;;;;;5014692;28;20069;-82
2022/06/29 12:48:15;;;;;;;1.95;1.30;;;28.00;99.90;;;;;;5012158;28;20077;-80
2022/06/29 12:50:42;;;;;;;1.60;1.30;;;28.10;99.90;;;;;;5013211;28;20551;-79
2022/06/29 12:53:09;;;;;;;5.32;1.75;;;28.00;99.90;;;;;;5010259;28;20050;-79
2022/06/29 12:55:36;;;;;;;2.17;1.33;;;28.00;99.90;;;;;;5006666;28;20111;-79
2022/06/29 12:58:02;;;;;;;3.90;1.27;;;28.00;99.90;;;;;;5011166;28;20081;-80
2022/06/29 13:00:29;;;;;;;4.03;1.40;;;27.90;99.90;;;;;;5009930;28;20046;-80
2022/06/29 13:02:56;;;;;;;4.03;1.55;;;27.90;99.90;;;;;;5013848;28;20065;-79
2022/06/29 13:05:23;;;;;;;3.13;1.20;;;27.70;99.90;;;;;;5014015;28;20086;-79
2022/06/29 13:07:50;;;;;;;3.67;1.75;;;27.60;99.90;;;;;;5011102;28;20047;-80
2022/06/29 13:10:16;;;;;;;4.80;2.72;;;27.50;99.90;;;;;;5016772;28;20048;-80
2022/06/29 13:12:43;;;;;;;1.52;1.40;;;27.40;99.90;;;;;;5009873;28;20046;-80
2022/06/29 13:15:10;;;;;;;2.55;1.15;;;27.30;99.90;;;;;;5011248;28;20050;-81
2022/06/29 13:17:37;;;;;;;1.42;1.20;;;27.30;99.90;;;;;;5014343;28;20054;-79
2022/06/29 13:20:08;;;;;;;2.15;1.08;;;27.30;99.90;;;;;;5014989;28;20085;-81
2022/06/29 13:22:36;;;;;;;2.05;1.10;;;27.30;99.90;;;;;;5028921;28;20050;-80